• Join FlightAware (Why Join?)
  • Login
  • US Flag 
12:23AM EST


 

Airport Tracker/Info


-or-


 

Live Flight TrackerFlight Track Log ✈ ASA128 ✈ 10-May-2013 ✈ PAFA / FAI - KSEA

Flight Track Log - Related Links

Times and Time Zones

All times are in EDT time to prevent confusion due to time zone crossing. See the ASA128 flight status page for this flight to view local times or setup timezone preferences in your user account.

Time Position Orientation Groundspeed Altitude Reporting Facility
EDT Latitude Longitude Course Direction KTS MPH feet Rate Location/Type
05:41AM 64.7333 -147.7667 123° Southeast 230 265 4,600  Level Anchorage Center
05:42AM 64.7000 -147.6333 120° Southeast 260 299 6,800 2,520 Climbing Anchorage Center
05:43AM 64.6500 -147.4833 128° Southeast 280 322 9,700 2,220 Climbing Anchorage Center
05:44AM 64.6167 -147.3333 117° Southeast 310 357 11,300 1,920 Climbing Anchorage Center
05:45AM 64.5500 -147.1333 128° Southeast 340 391 13,600 2,220 Climbing Anchorage Center
05:46AM 64.3914 -146.5339 123° Southeast  Level FlightAware Approximate
05:46AM 64.5000 -146.9500 122° Southeast 360 414 15,800  Level Anchorage Center
05:47AM 64.4500 -146.7333 118° Southeast 380 437 17,700 1,920 Climbing Anchorage Center
05:48AM 64.3833 -146.5167 125° Southeast 390 449 19,700 1,860 Climbing Anchorage Center
05:49AM 64.3333 -146.3167 120° Southeast 400 460 21,500 1,800 Climbing Anchorage Center
05:50AM 64.2667 -146.0833 123° Southeast 410 472 23,300 1,620 Climbing Anchorage Center
05:51AM 64.2000 -145.8667 125° Southeast 420 483 24,800 1,500 Climbing Anchorage Center
05:52AM 64.1333 -145.6333 123° Southeast 430 495 26,300 1,440 Climbing Anchorage Center
05:53AM 64.0667 -145.4167 125° Southeast 440 506 27,700 1,320 Climbing Anchorage Center
05:54AM 64.0000 -145.1667 121° Southeast 440 506 29,000 1,140 Climbing Anchorage Center
05:55AM 63.9333 -144.9500 125° Southeast 450 518 30,100 960 Climbing Anchorage Center
05:56AM 63.8667 -144.7500 127° Southeast 460 529 31,000 900 Climbing Anchorage Center
05:57AM 63.7833 -144.5167 129° Southeast 460 529 31,900 1,020 Climbing Anchorage Center
05:58AM 63.7167 -144.2667 121° Southeast 470 541 33,100 1,140 Climbing Anchorage Center
05:59AM 63.6333 -144.0167 127° Southeast 470 541 34,200 900 Climbing Anchorage Center
06:00AM 63.5667 -143.7833 123° Southeast 470 541 35,000 360 Climbing Anchorage Center
06:01AM 63.4833 -143.5500 129° Southeast 450 518 35,000  Level Anchorage Center
06:02AM 63.4167 -143.3167 122° Southeast 470 541 35,000  Level Anchorage Center
06:03AM 63.3333 -143.0833 128° Southeast 470 541 35,000  Level Anchorage Center
06:06AM 63.2471 -142.8130 125° Southeast  Level FlightAware Approximate
06:13AM 62.7138 -141.4717 138° Southeast  Level FlightAware Approximate
06:14AM 62.6268 -141.3044 138° Southeast  Level FlightAware Approximate
06:15AM 62.5395 -141.1379 139° Southeast  Level FlightAware Approximate
06:16AM 62.4521 -140.9725 139° Southeast  Level FlightAware Approximate
06:17AM 62.3645 -140.8080 139° Southeast  Level FlightAware Approximate
06:18AM 62.2775 -140.6462 139° Southeast  Level FlightAware Approximate
06:19AM 62.1904 -140.4853 139° Southeast  Level FlightAware Approximate
06:20AM 62.1032 -140.3253 139° Southeast  Level FlightAware Approximate
06:21AM 62.0190 -140.1578 137° Southeast  Level Estimated
06:22AM 61.9344 -139.9908 137° Southeast  Level Estimated
06:23AM 61.8497 -139.8248 137° Southeast  Level Estimated
06:23AM 61.5167 -139.3000 138° Southeast 460 529 35,000  Level Anchorage Center
06:24AM 61.7647 -139.6596 137° Southeast  Level Estimated
06:24AM 61.4167 -139.1333 141° Southeast 450 518 35,000  Level Anchorage Center
06:25AM 61.6795 -139.4954 138° Southeast  Level Estimated
06:25AM 61.3333 -138.9667 136° Southeast 450 518 35,000  Level Anchorage Center
06:26AM 61.5942 -139.3320 138° Southeast  Level Estimated
06:26AM 61.2167 -138.8167 148° Southeast 460 529 35,000  Level Anchorage Center
06:27AM 61.5086 -139.1696 138° Southeast  Level Estimated
06:27AM 61.1167 -138.6833 147° Southeast 440 506 35,000  Level Anchorage Center
06:28AM 61.4229 -139.0080 138° Southeast  Level Estimated
06:28AM 61.0167 -138.5500 147° Southeast 440 506 35,000  Level Anchorage Center
06:29AM 60.9000 -138.4167 151° Southeast 460 529 35,000  Level Anchorage Center
06:30AM 60.8000 -138.2833 147° Southeast 450 518 35,000  Level Anchorage Center
06:31AM 60.6833 -138.1500 151° Southeast 440 506 35,000  Level Anchorage Center
06:32AM 60.5833 -138.0167 147° Southeast 440 506 35,000  Level Anchorage Center
06:33AM 60.4833 -137.8833 147° Southeast 450 518 35,000  Level Anchorage Center
06:34AM 60.3667 -137.7500 151° Southeast 450 518 35,000  Level Anchorage Center
06:35AM 60.2667 -137.6333 150° Southeast 450 518 35,000  Level Anchorage Center
06:36AM 60.1500 -137.5000 150° Southeast 450 518 35,000  Level Anchorage Center
06:37AM 60.0500 -137.3667 146° Southeast 440 506 35,000  Level Anchorage Center
06:38AM 59.9667 -137.2667 149° Southeast 450 518 35,000  Level Anchorage Center
06:39AM 59.8500 -137.1333 150° Southeast 450 518 35,000  Level Anchorage Center
06:40AM 59.7500 -137.0167 150° Southeast 440 506 35,000  Level Anchorage Center
06:41AM 59.6500 -136.8833 146° Southeast 440 506 35,000  Level Anchorage Center
06:42AM 59.5333 -136.7667 153° Southeast 440 506 35,000  Level Anchorage Center
06:43AM 59.4333 -136.6167 143° Southeast 440 506 35,000  Level Anchorage Center
06:44AM 59.3500 -136.4500 134° Southeast 460 529 35,000  Level Anchorage Center
06:45AM 59.2500 -136.2833 140° Southeast 450 518 35,000  Level Anchorage Center
06:46AM 59.1500 -136.1333 142° Southeast 450 518 35,000  Level Anchorage Center
06:47AM 59.0667 -135.9667 134° Southeast 450 518 35,000  Level Anchorage Center
06:48AM 58.9667 -135.8167 142° Southeast 440 506 35,000  Level Anchorage Center
06:49AM 58.8667 -135.6667 142° Southeast 440 506 35,000  Level Anchorage Center
06:50AM 58.7667 -135.5000 139° Southeast 430 495 35,000  Level Anchorage Center
06:51AM 58.6833 -135.3500 137° Southeast 440 506 35,000  Level Anchorage Center
06:52AM 58.5833 -135.2000 142° Southeast 430 495 35,000  Level Anchorage Center
06:53AM 58.4833 -135.0500 142° Southeast 440 506 35,000  Level Anchorage Center
06:54AM 58.4000 -134.8833 134° Southeast 450 518 35,000  Level Anchorage Center
06:55AM 58.3000 -134.7333 142° Southeast 450 518 35,000  Level Anchorage Center
06:56AM 58.2000 -134.5833 142° Southeast 450 518 35,000  Level Anchorage Center
06:57AM 58.1000 -134.4333 142° Southeast 450 518 35,000  Level Anchorage Center
06:58AM 58.0167 -134.2833 136° Southeast 450 518 35,000  Level Anchorage Center
06:59AM 57.9167 -134.1333 141° Southeast 440 506 35,000  Level Anchorage Center
07:00AM 57.8167 -134.0000 145° Southeast 440 506 35,000  Level Anchorage Center
07:01AM 57.7167 -133.8500 141° Southeast 440 506 35,000  Level Anchorage Center
07:02AM 57.6333 -133.7000 136° Southeast 440 506 35,000  Level Anchorage Center
07:03AM 57.5333 -133.5667 144° Southeast 440 506 35,000  Level Anchorage Center
07:04AM 57.4333 -133.4167 141° Southeast 440 506 35,000  Level Anchorage Center
07:05AM 57.3333 -133.2833 144° Southeast 440 506 35,000  Level Anchorage Center
07:06AM 57.2667 -133.1667 137° Southeast 440 506 35,000  Level Anchorage Center
07:07AM 57.1667 -133.0333 144° Southeast 440 506 35,000  Level Anchorage Center
07:08AM 57.0667 -132.8833 141° Southeast 440 506 35,000  Level Anchorage Center
07:09AM 56.9833 -132.7500 139° Southeast 430 495 35,000  Level Anchorage Center
07:09AM 56.9333 -132.7500 180° South 440 506 35,000  Level Vancouver Center
07:10AM 56.8833 -132.6167 124° Southeast 430 495 35,000  Level Anchorage Center
07:11AM 56.7833 -132.4833 144° Southeast 430 495 35,000  Level Anchorage Center
07:12AM 56.6833 -132.3500 144° Southeast 440 506 35,000  Level Anchorage Center
07:12AM 56.6500 -132.3500 180° South 430 495 35,000  Level Vancouver Center
07:13AM 56.6000 -132.2167 124° Southeast 430 495 35,000  Level Anchorage Center
07:14AM 56.5000 -132.0833 144° Southeast 440 506 35,000  Level Anchorage Center
07:14AM 56.4667 -132.0667 165° South 440 506 35,000  Level Vancouver Center
07:15AM 56.3333 -131.9167 148° Southeast 440 506 35,000  Level Vancouver Center
07:16AM 56.3000 -131.8167 121° Southeast 430 495 35,000  Level Anchorage Center
07:17AM 56.2167 -131.6833 138° Southeast 440 506 35,000  Level Anchorage Center
07:18AM 56.1167 -131.5500 143° Southeast 440 506 35,000  Level Anchorage Center
07:18AM 56.0667 -131.5333 169° South 430 495 35,000  Level Vancouver Center
07:20AM 55.9000 -131.2833 140° Southeast 440 506 35,000  Level Anchorage Center
07:20AM 55.8833 -131.3000 209° Southwest 430 495 35,000  Level Vancouver Center
07:21AM 55.8167 -131.1500 128° Southeast 430 495 35,000  Level Anchorage Center
07:22AM 55.7167 -131.0167 143° Southeast 430 495 35,000  Level Anchorage Center
07:22AM 55.7000 -131.0167 180° South 430 495 35,000  Level Vancouver Center
07:23AM 55.6167 -130.9000 142° Southeast 430 495 35,000  Level Anchorage Center
07:24AM 55.5167 -130.7667 143° Southeast 430 495 35,000 240 Level Anchorage Center
07:26AM 55.3000 -130.5333 148° Southeast 440 506 35,800 360 Climbing Vancouver Center
07:27AM 55.2000 -130.4000 143° Southeast 440 506 36,300 480 Climbing Vancouver Center
07:28AM 55.1167 -130.2667 138° Southeast 440 506 36,800 300 Climbing Vancouver Center
07:29AM 55.0000 -130.1333 147° Southeast 440 506 37,000 60 Climbing Vancouver Center
07:30AM 54.9000 -130.0333 150° Southeast 440 506 37,000  Level Vancouver Center
07:31AM 54.8000 -129.9000 142° Southeast 440 506 37,000  Level Vancouver Center
07:32AM 54.7000 -129.7833 146° Southeast 440 506 37,000  Level Vancouver Center
07:33AM 54.6000 -129.6833 150° Southeast 440 506 37,000  Level Vancouver Center
07:34AM 54.5167 -129.5500 137° Southeast 440 506 37,000  Level Vancouver Center
07:35AM 54.4167 -129.4167 142° Southeast 440 506 37,000  Level Vancouver Center
07:36AM 54.3000 -129.2833 146° Southeast 440 506 37,000  Level Vancouver Center
07:37AM 54.2167 -129.1667 141° Southeast 440 506 37,000  Level Vancouver Center
07:38AM 54.1000 -129.0333 146° Southeast 440 506 37,000  Level Vancouver Center
07:39AM 54.0000 -128.9333 150° Southeast 440 506 37,000  Level Vancouver Center
07:40AM 53.9167 -128.8167 140° Southeast 440 506 37,000  Level Vancouver Center
07:41AM 53.8167 -128.6833 142° Southeast 440 506 37,000  Level Vancouver Center
07:42AM 53.7167 -128.6000 154° Southeast 440 506 37,000  Level Vancouver Center
07:43AM 53.6000 -128.4667 146° Southeast 440 506 37,000  Level Vancouver Center
07:44AM 53.5167 -128.3500 140° Southeast 440 506 37,000  Level Vancouver Center
07:45AM 53.4000 -128.2167 146° Southeast 440 506 37,000  Level Vancouver Center
07:46AM 53.3000 -128.1333 154° Southeast 440 506 37,000  Level Vancouver Center
07:47AM 53.2000 -127.9833 138° Southeast 470 541 37,000  Level Vancouver Center
07:48AM 53.1000 -127.8833 149° Southeast 450 518 37,000  Level Vancouver Center
07:49AM 53.0000 -127.7667 145° Southeast 450 518 37,000  Level Vancouver Center
07:50AM 52.8833 -127.6500 149° Southeast 450 518 37,000  Level Vancouver Center
07:51AM 52.7833 -127.5167 141° Southeast 460 529 37,000  Level Vancouver Center
07:52AM 52.6667 -127.4000 149° Southeast 450 518 37,000  Level Vancouver Center
07:53AM 52.5833 -127.2833 140° Southeast 450 518 37,000  Level Vancouver Center
07:54AM 52.4667 -127.2000 156° South 450 518 37,000  Level Vancouver Center
07:55AM 52.3667 -127.0833 145° Southeast 450 518 37,000  Level Vancouver Center
07:56AM 52.2500 -126.9667 149° Southeast 450 518 37,000  Level Vancouver Center
07:57AM 52.1500 -126.8500 144° Southeast 450 518 37,000  Level Vancouver Center
07:58AM 52.0333 -126.7333 148° Southeast 450 518 37,000  Level Vancouver Center
07:59AM 51.9500 -126.6167 139° Southeast 450 518 37,000  Level Vancouver Center
08:00AM 51.8333 -126.5000 148° Southeast 450 518 37,000  Level Vancouver Center
08:01AM 51.7333 -126.4167 153° Southeast 450 518 37,000  Level Vancouver Center
08:02AM 51.6333 -126.3000 144° Southeast 450 518 37,000  Level Vancouver Center
08:03AM 51.5167 -126.1833 148° Southeast 450 518 37,000  Level Vancouver Center
08:04AM 51.4167 -126.0667 144° Southeast 450 518 37,000  Level Vancouver Center
08:05AM 51.3167 -125.9667 148° Southeast 450 518 37,000  Level Vancouver Center
08:06AM 51.2000 -125.8833 156° South 450 518 37,000  Level Vancouver Center
08:07AM 51.1167 -125.7667 139° Southeast 450 518 37,000  Level Vancouver Center
08:08AM 51.0000 -125.6500 148° Southeast 460 529 37,000  Level Vancouver Center
08:09AM 50.9000 -125.5500 148° Southeast 470 541 37,000  Level Vancouver Center
08:10AM 50.7833 -125.4333 148° Southeast 460 529 37,000  Level Vancouver Center
08:11AM 50.6833 -125.3333 148° Southeast 460 529 37,000  Level Vancouver Center
08:12AM 50.5667 -125.2167 148° Southeast 460 529 37,000  Level Vancouver Center
08:13AM 50.4500 -125.1167 151° Southeast 460 529 37,000  Level Vancouver Center
08:14AM 50.3500 -125.0000 143° Southeast 460 529 37,000  Level Vancouver Center
08:15AM 50.2333 -124.9000 151° Southeast 450 518 37,000  Level Vancouver Center
08:16AM 50.1333 -124.8167 152° Southeast 450 518 37,000  Level Vancouver Center
08:17AM 50.0167 -124.7000 147° Southeast 450 518 37,000  Level Vancouver Center
08:18AM 49.9167 -124.6000 147° Southeast 450 518 37,000  Level Vancouver Center
08:19AM 49.8000 -124.5000 151° Southeast 450 518 37,000  Level Vancouver Center
08:20AM 49.7000 -124.4000 147° Southeast 450 518 37,000  Level Vancouver Center
08:21AM 49.6000 -124.2833 143° Southeast 450 518 37,000  Level Vancouver Center
08:22AM 49.4833 -124.2167 160° South 450 518 37,000  Level Vancouver Center
08:23AM 49.3833 -124.1000 143° Southeast 450 518 37,000  Level Vancouver Center
08:24AM 49.2833 -124.0000 147° Southeast 450 518 37,000  Level Vancouver Center
08:25AM 49.1667 -123.9000 151° Southeast 450 518 37,000 -180 Level Vancouver Center
08:26AM 49.0667 -123.8000 147° Southeast 450 518 36,700 -1,380 Descending Vancouver Center
08:27AM 48.9500 -123.7000 151° Southeast 450 518 34,300 -2,940 Descending Vancouver Center
08:28AM 48.8500 -123.6000 147° Southeast 460 529 30,900 -3,240 Descending Vancouver Center
08:29AM 48.7333 -123.5167 155° Southeast 460 529 27,900 -2,940 Descending Vancouver Center
08:30AM 48.6167 -123.4000 147° Southeast 450 518 25,100 -2,700 Descending Vancouver Center
08:31AM 48.5167 -123.3167 151° Southeast 440 506 22,600 -2,400 Descending Vancouver Center
08:32AM 48.4333 -123.2167 141° Southeast 420 483 20,300 -2,160 Descending Vancouver Center
08:33AM 48.3333 -123.1167 146° Southeast 410 472 18,300 -1,980 Descending Vancouver Center
08:34AM 48.2597 -123.0511 149° Southeast 398 458 16,500 -2,220 Descending Seattle Center
08:35AM 48.1686 -122.9678 149° Southeast 388 447 14,000 -2,340 Descending Seattle Center
08:36AM 48.1353 -122.9378 149° Southeast 385 443 13,400 -1,620 Descending Seattle Center
08:36AM 48.0803 -122.8869 148° Southeast 374 430 12,400 -840 Descending Seattle Center
08:37AM 48.0144 -122.7950 137° Southeast 324 373 12,000 -600 Descending Seattle Center
08:38AM 47.9619 -122.6958 128° Southeast 306 352 11,300 -1,140 Descending Seattle Center
08:39AM 47.9100 -122.5989 129° Southeast 302 348 9,800 -1,440 Descending Seattle Center
08:40AM 47.8578 -122.5067 130° Southeast 294 338 8,400 -1,320 Descending Seattle Center
08:41AM 47.7989 -122.4239 137° Southeast 266 306 7,200 -1,020 Descending Seattle Center
08:42AM 47.7367 -122.3764 153° Southeast 254 292 6,400 -780 Descending Seattle Center
08:44AM 47.6808 -122.3322 152° Southeast 181 208 5,500 -1,020 Descending Seattle Center
08:45AM 47.6322 -122.3067 160° South 189 217 4,200 -1,260 Descending Seattle Center
08:45AM 47.5872 -122.3067 180° South 190 219 3,200 -1,200 Descending Seattle Center
08:46AM 47.5378 -122.3075 181° South 179 206 2,000 -1,020 Descending Seattle Center
08:47AM 47.4969 -122.3078 180° South 149 171 1,200 -780 Descending Seattle Center
08:48AM 47.4583 -122.3081 180° South 139 160 500 -720 Descending Seattle Center
08:50AM 47.4499 -122.3118 170° South  Level Estimated
08:57AM 47.4499 -122.3118 170° South  Level Estimated